createdAt,value
2023-03-26T00:07:31.519Z,99646.97
2023-03-26T00:17:37.009Z,99658.72
2023-03-26T00:27:40.607Z,99663.00
2023-03-26T00:37:43.464Z,99643.91
2023-03-26T00:47:46.365Z,99634.72
2023-03-26T00:57:48.570Z,99621.72
2023-03-26T01:07:51.566Z,99619.06
2023-03-26T01:17:58.061Z,99606.50
2023-03-26T01:28:01.042Z,99597.88
2023-03-26T01:38:24.630Z,99598.25
2023-03-26T01:48:39.824Z,99585.75
2023-03-26T01:58:54.270Z,99571.44
2023-03-26T02:09:01.142Z,99559.81
2023-03-26T02:19:05.290Z,99551.56
2023-03-26T02:29:08.060Z,99531.94
2023-03-26T02:39:14.264Z,99519.72
2023-03-26T02:49:20.177Z,99514.34
2023-03-26T02:59:22.986Z,99505.00
2023-03-26T03:09:41.567Z,99501.84
2023-03-26T03:20:05.392Z,99489.31
2023-03-26T03:30:10.936Z,99466.13
2023-03-26T03:40:15.960Z,99452.66
2023-03-26T03:50:20.084Z,99440.59
2023-03-26T04:00:48.856Z,99435.09
2023-03-26T04:11:20.009Z,99425.56
2023-03-26T04:21:42.850Z,99418.78
2023-03-26T04:31:47.318Z,99407.34
2023-03-26T04:41:51.888Z,99388.06
2023-03-26T04:51:55.960Z,99382.81
2023-03-26T05:02:21.419Z,99351.53
2023-03-26T05:12:27.755Z,99352.00
2023-03-26T05:22:38.882Z,99343.09
2023-03-26T05:32:57.105Z,99327.31
2023-03-26T05:43:04.698Z,99312.44
2023-03-26T05:53:23.718Z,99297.56
2023-03-26T06:03:58.118Z,99275.84
2023-03-26T06:14:04.175Z,99272.81
2023-03-26T06:24:07.886Z,99254.22
2023-03-26T06:34:19.968Z,99242.78
2023-03-26T06:44:22.613Z,99254.59
2023-03-26T06:54:55.439Z,99252.28
2023-03-26T07:05:21.242Z,99252.53
2023-03-26T07:15:43.864Z,99240.34
2023-03-26T07:25:48.284Z,99233.69
2023-03-26T07:35:58.205Z,99220.28
2023-03-26T07:46:32.240Z,99209.34
2023-03-26T07:56:59.352Z,99190.50
2023-03-26T08:07:50.864Z,99185.41
2023-03-26T08:18:27.294Z,99178.03
2023-03-26T08:28:52.998Z,99174.56
2023-03-26T08:38:55.327Z,99166.03
2023-03-26T08:49:32.715Z,99163.47
2023-03-26T08:59:52.035Z,99161.56
2023-03-26T09:10:22.479Z,99155.50
2023-03-26T09:21:01.957Z,99150.03
2023-03-26T09:31:29.602Z,99155.69
2023-03-26T09:41:38.477Z,99146.44
2023-03-26T09:52:16.526Z,99141.31
2023-03-26T10:02:47.205Z,99139.56
2023-03-26T10:13:08.132Z,99128.09
2023-03-26T10:23:25.900Z,99127.38
2023-03-26T10:33:39.622Z,99117.88
2023-03-26T10:44:22.118Z,99120.94
2023-03-26T10:54:49.585Z,99112.50
2023-03-26T11:05:10.521Z,99105.97
2023-03-26T11:15:27.902Z,99105.03
2023-03-26T11:26:08.062Z,99104.72
2023-03-26T11:36:14.852Z,99107.22
2023-03-26T11:46:19.195Z,99103.19
2023-03-26T11:56:31.350Z,99091.78
2023-03-26T12:06:34.459Z,99093.69
2023-03-26T12:16:36.719Z,99083.19
2023-03-26T12:26:46.474Z,99087.50
2023-03-26T12:36:51.385Z,99085.19
2023-03-26T12:47:58.789Z,99074.50
2023-03-26T12:57:38.955Z,99071.09
2023-03-26T13:07:51.807Z,99064.81
2023-03-26T13:18:00.268Z,99065.03
2023-03-26T13:28:19.987Z,99060.25
2023-03-26T13:38:43.483Z,99057.03
2023-03-26T13:49:13.756Z,99050.47
2023-03-26T13:59:20.862Z,99062.69
2023-03-26T14:09:32.068Z,99064.75
2023-03-26T14:19:37.473Z,99058.59
2023-03-26T14:29:56.746Z,99076.34
2023-03-26T14:40:48.667Z,99090.13
2023-03-26T14:50:55.974Z,99094.28
2023-03-26T15:01:27.131Z,99109.19
2023-03-26T15:11:51.937Z,99119.75
2023-03-26T15:22:32.616Z,99139.63
2023-03-26T15:32:57.185Z,99154.94
2023-03-26T15:43:11.941Z,99164.72
2023-03-26T15:53:24.651Z,99181.25
2023-03-26T16:03:49.860Z,99194.97
2023-03-26T16:14:23.343Z,99217.44
2023-03-26T16:24:38.829Z,99230.50
2023-03-26T16:34:58.178Z,99244.22
2023-03-26T16:45:14.004Z,99260.56
2023-03-26T16:55:22.010Z,99296.66
2023-03-26T17:05:34.690Z,99313.81
2023-03-26T17:15:53.648Z,99340.38
2023-03-26T17:26:17.693Z,99349.97
2023-03-26T17:36:36.346Z,99375.81
2023-03-26T17:46:43.009Z,99399.28
2023-03-26T17:56:46.171Z,99415.75
2023-03-26T18:06:59.456Z,99437.59
2023-03-26T18:17:02.071Z,99463.63
2023-03-26T18:27:12.520Z,99489.41
2023-03-26T18:37:24.757Z,99515.25
2023-03-26T18:47:27.522Z,99528.25
2023-03-26T18:57:29.982Z,99548.84
2023-03-26T19:07:32.259Z,99562.53
2023-03-26T19:17:39.884Z,99580.56
2023-03-26T19:27:42.514Z,99602.66
2023-03-26T19:37:54.136Z,99624.75
2023-03-26T19:48:11.739Z,99644.19
2023-03-26T19:58:30.721Z,99655.56
2023-03-26T20:08:32.912Z,99678.59
2023-03-26T20:18:35.301Z,99708.72
2023-03-26T20:28:47.279Z,99735.97
2023-03-26T20:38:51.214Z,99759.97
2023-03-26T20:48:54.920Z,99782.53
2023-03-26T21:09:04.518Z,99819.94
2023-03-26T21:19:06.820Z,99841.50
2023-03-26T21:29:09.437Z,99869.50
2023-03-26T21:39:11.844Z,99881.19
2023-03-26T21:49:16.330Z,99898.34
2023-03-26T21:59:26.940Z,99921.34
2023-03-26T22:09:36.410Z,99954.03
2023-03-26T22:19:38.828Z,99964.41
2023-03-26T22:29:40.982Z,99976.28
2023-03-26T22:39:43.364Z,100006.41
2023-03-26T22:49:45.482Z,100016.84
2023-03-26T22:59:47.736Z,100043.41
2023-03-26T23:09:49.874Z,100052.63
2023-03-26T23:19:52.159Z,100068.09
2023-03-26T23:29:55.393Z,100095.09
2023-03-26T23:39:58.928Z,100108.47
2023-03-26T23:50:04.444Z,100130.81
